Portada
METAR-TAF:

METAR-TAF

Aeropuertos :

Aeropuerto de Aupaluk

Aupaluk, Quebec, Canadá

latitud: 59-17-48N, longitud: 069-35-59W, altitud: 35 m

Observación

El informe se hizo hace 47 minutos, a las 18:00 UTC
Viento 9 kt del sur, variando entre este-sureste y sur
Temperatura 20°C
Humedad 49%
Presión 1022 hPa
Visibilidad: 24.1 km
Cielo nuboso a una altura de 28000 ft

METAR: CYLA 211800Z 17009KT 110V190 15SM BKN280 20/09 A3019 RMK CI6 SLP226 DENSITY ALT 500FT

Hora: 14:47 (18:47 UTC)


TAF: falta

Observaciones y pronósticos meteorológicos de más de 4000 aeropuertos (mensajes METAR y TAF).

Los puntos amarillos y rojos representan las estaciones disponibles.

Ponga el ratón en el punto deseado para ver el nombre de la estación.

Haga clic para ver las observaciones y los pronósticos meteorológicos.

Para cambiar el mapa : haga clic en los botones verdes con una cruz de color negro para hacer un zoom, en el botón verde con un guión para alejar o en las flechas verdes para mapas adyacentes.


METAR-TAF: